Time;durP1;ratioP1;P1;durP2;ratioP2;P2;SDS_P1;SDS_P2;PMS_P1;PMS_P2;Temp;Humidity;BMP_temperature;BMP_pressure;BME280_temperature;BME280_humidity;BME280_pressure;Samples;Min_cycle;Max_cycle;Signal;HPM_P1;HPM_P2
2022/05/16 00:01:43;;;;;;;;;;;;;;;;;;4994659;28;814;-66
2022/05/16 00:04:08;;;;;;;;;;;;;;;;;;4994103;28;830;-66
2022/05/16 00:06:34;;;;;;;;;;;;;;;;;;4992808;28;979;-66
2022/05/16 00:08:59;;;;;;;;;;;;;;;;;;4993962;28;1015;-66
2022/05/16 00:11:24;;;;;;;;;;;;;;;;;;4992420;28;940;-66
2022/05/16 00:13:49;;;;;;;;;;;;;;;;;;4994257;28;948;-66
2022/05/16 00:16:15;;;;;;;;;;;;;;;;;;4993513;28;849;-66
2022/05/16 00:18:41;;;;;;;;;;;;;;;;;;4993790;28;1902;-66
2022/05/16 00:21:07;;;;;;;;;;;;;;;;;;4994265;28;992;-66
2022/05/16 00:23:32;;;;;;;;;;;;;;;;;;4994211;28;993;-66
2022/05/16 00:25:57;;;;;;;;;;;;;;;;;;4994228;28;896;-66
2022/05/16 00:28:22;;;;;;;;;;;;;;;;;;4993970;28;983;-66
2022/05/16 00:30:48;;;;;;;;;;;;;;;;;;4993011;28;900;-66
2022/05/16 00:33:13;;;;;;;;;;;;;;;;;;5004325;28;1131;-66
2022/05/16 00:35:39;;;;;;;;;;;;;;;;;;5013829;28;869;-66
2022/05/16 00:38:04;;;;;;;;;;;;;;;;;;5012899;28;1974;-66
2022/05/16 00:40:30;;;;;;;;;;;;;;;;;;5013372;28;916;-66
2022/05/16 00:43:02;;;;;;;;;;;;;;;;;;5013649;28;782;-66
2022/05/16 00:45:28;;;;;;;;;;;;;;;;;;5013017;28;861;-66
2022/05/16 00:47:53;;;;;;;;;;;;;;;;;;5013802;28;826;-66
2022/05/16 00:50:18;;;;;;;;;;;;;;;;;;5013175;28;834;-66
2022/05/16 00:52:46;;;;;;;;;;;;;;;;;;5013262;28;845;-66
2022/05/16 00:55:24;;;;;;;;;;;;;;;;;;5013015;28;912;-66
2022/05/16 00:57:51;;;;;;;;;;;;;;;;;;5012581;28;1957;-66
2022/05/16 01:00:35;;;;;;;;;;;;;;;;;;5012037;28;770;-66
2022/05/16 01:05:47;;;;;;;;;;;;;;;;;;5012444;28;624;-66
2022/05/16 01:08:15;;;;;;;;;;;;;;;;;;5012431;28;901;-66
2022/05/16 01:10:40;;;;;;;;;;;;;;;;;;5012064;28;865;-66
2022/05/16 01:13:06;;;;;;;;;;;;;;;;;;4994461;28;913;-66
2022/05/16 01:15:37;;;;;;;;;;;;;;;;;;5012119;28;822;-66
2022/05/16 01:18:07;;;;;;;;;;;;;;;;;;5012644;28;1906;-66
2022/05/16 01:20:52;;;;;;;;;;;;;;;;;;5011845;28;868;-66
2022/05/16 01:23:20;;;;;;;;;;;;;;;;;;4980793;28;1167;-66
2022/05/16 01:25:45;;;;;;;;;;;;;;;;;;5011756;28;896;-66
2022/05/16 01:28:10;;;;;;;;;;;;;;;;;;4994111;28;1275;-66
2022/05/16 01:30:41;;;;;;;;;;;;;;;;;;5011855;28;920;-66
2022/05/16 01:33:06;;;;;;;;;;;;;;;;;;4993337;28;1791;-65
2022/05/16 01:35:32;;;;;;;;;;;;;;;;;;5009722;28;860;-66
2022/05/16 01:40:42;;;;;;;;;;;;;;;;;;5011205;28;647;-66
2022/05/16 01:43:08;;;;;;;;;;;;;;;;;;5011643;28;904;-66
2022/05/16 01:45:34;;;;;;;;;;;;;;;;;;5011738;28;915;-66
2022/05/16 01:47:59;;;;;;;;;;;;;;;;;;5011574;28;888;-66
2022/05/16 01:50:25;;;;;;;;;;;;;;;;;;5010911;28;821;-67
2022/05/16 01:52:50;;;;;;;;;;;;;;;;;;5011635;28;944;-66
2022/05/16 01:55:16;;;;;;;;;;;;;;;;;;5010759;28;941;-66
2022/05/16 01:57:41;;;;;;;;;;;;;;;;;;5011093;28;1894;-65
2022/05/16 02:00:09;;;;;;;;;;;;;;;;;;5011134;28;944;-65
2022/05/16 02:02:34;;;;;;;;;;;;;;;;;;5011292;28;917;-65
2022/05/16 02:04:59;;;;;;;;;;;;;;;;;;5011581;28;1090;-66
2022/05/16 02:07:24;;;;;;;;;;;;;;;;;;5010983;28;862;-67
2022/05/16 02:09:50;;;;;;;;;;;;;;;;;;5011822;28;1063;-66
2022/05/16 02:12:15;;;;;;;;;;;;;;;;;;5011426;28;1004;-67
2022/05/16 02:14:40;;;;;;;;;;;;;;;;;;5012346;28;999;-67
2022/05/16 02:17:05;;;;;;;;;;;;;;;;;;5011564;28;1910;-66
2022/05/16 02:19:31;;;;;;;;;;;;;;;;;;5012056;28;853;-67
2022/05/16 02:24:40;;;;;;;;;;;;;;;;;;5012353;28;920;-66
2022/05/16 02:27:06;;;;;;;;;;;;;;;;;;5011247;28;915;-67
2022/05/16 02:29:31;;;;;;;;;;;;;;;;;;5011653;28;929;-66
2022/05/16 02:31:56;;;;;;;;;;;;;;;;;;5010897;28;1293;-67
2022/05/16 02:34:22;;;;;;;;;;;;;;;;;;4992994;28;814;-66
2022/05/16 02:36:47;;;;;;;;;;;;;;;;;;5010802;28;1902;-67
2022/05/16 02:39:13;;;;;;;;;;;;;;;;;;4993285;28;825;-67
2022/05/16 02:41:39;;;;;;;;;;;;;;;;;;5011253;28;910;-68
2022/05/16 02:44:04;;;;;;;;;;;;;;;;;;5011249;28;845;-67
2022/05/16 02:46:31;;;;;;;;;;;;;;;;;;5010453;28;821;-67
2022/05/16 02:48:56;;;;;;;;;;;;;;;;;;5010118;28;878;-67
2022/05/16 02:51:21;;;;;;;;;;;;;;;;;;5010522;28;838;-67
2022/05/16 02:53:46;;;;;;;;;;;;;;;;;;5010589;28;872;-67
2022/05/16 02:56:12;;;;;;;;;;;;;;;;;;5010152;28;814;-67
2022/05/16 02:58:37;;;;;;;;;;;;;;;;;;4992642;28;1940;-67
2022/05/16 03:01:02;;;;;;;;;;;;;;;;;;5011035;28;912;-67
2022/05/16 03:03:27;;;;;;;;;;;;;;;;;;5013951;28;778;-66
2022/05/16 03:05:52;;;;;;;;;;;;;;;;;;5014458;28;810;-66
2022/05/16 03:08:18;;;;;;;;;;;;;;;;;;5013701;28;888;-66
2022/05/16 03:10:43;;;;;;;;;;;;;;;;;;5013569;28;916;-66
2022/05/16 03:13:08;;;;;;;;;;;;;;;;;;5013989;28;896;-66
2022/05/16 03:15:33;;;;;;;;;;;;;;;;;;5014208;28;884;-66
2022/05/16 03:17:59;;;;;;;;;;;;;;;;;;5013534;28;1902;-66
2022/05/16 03:20:24;;;;;;;;;;;;;;;;;;5013894;28;845;-66
2022/05/16 03:22:50;;;;;;;;;;;;;;;;;;5013573;28;884;-66
2022/05/16 03:25:15;;;;;;;;;;;;;;;;;;5013784;28;948;-66
2022/05/16 03:27:40;;;;;;;;;;;;;;;;;;5014036;28;1047;-66
2022/05/16 03:30:07;;;;;;;;;;;;;;;;;;4996576;28;912;-66
2022/05/16 03:32:32;;;;;;;;;;;;;;;;;;5014126;28;1074;-67
2022/05/16 03:34:58;;;;;;;;;;;;;;;;;;5013541;28;1007;-66
2022/05/16 03:37:23;;;;;;;;;;;;;;;;;;5013792;28;1961;-66
2022/05/16 03:42:33;;;;;;;;;;;;;;;;;;5013920;28;612;-66
2022/05/16 03:44:58;;;;;;;;;;;;;;;;;;5013809;28;1058;-73
2022/05/16 03:47:23;;;;;;;;;;;;;;;;;;5014043;28;849;-73
2022/05/16 03:49:49;;;;;;;;;;;;;;;;;;5013913;28;1070;-73
2022/05/16 03:52:14;;;;;;;;;;;;;;;;;;5014232;28;821;-74
2022/05/16 03:54:40;;;;;;;;;;;;;;;;;;5014569;28;1016;-74
2022/05/16 03:57:06;;;;;;;;;;;;;;;;;;5013669;28;1946;-67
2022/05/16 03:59:31;;;;;;;;;;;;;;;;;;5014188;28;1163;-67
2022/05/16 04:01:58;;;;;;;;;;;;;;;;;;5013797;28;837;-67
2022/05/16 04:04:23;;;;;;;;;;;;;;;;;;5011905;28;1203;-67
2022/05/16 04:06:48;;;;;;;;;;;;;;;;;;4996119;28;994;-66
2022/05/16 04:09:14;;;;;;;;;;;;;;;;;;5013631;28;919;-66
2022/05/16 04:11:39;;;;;;;;;;;;;;;;;;5013425;28;920;-66
2022/05/16 04:14:05;;;;;;;;;;;;;;;;;;5012627;28;873;-66
2022/05/16 04:16:31;;;;;;;;;;;;;;;;;;5012769;28;928;-66
2022/05/16 04:18:56;;;;;;;;;;;;;;;;;;5012790;28;1963;-66
2022/05/16 04:21:22;;;;;;;;;;;;;;;;;;5012796;28;861;-66
2022/05/16 04:23:47;;;;;;;;;;;;;;;;;;4995269;28;940;-66
2022/05/16 04:26:13;;;;;;;;;;;;;;;;;;5012828;28;821;-66
2022/05/16 04:28:38;;;;;;;;;;;;;;;;;;5013251;28;877;-66
2022/05/16 04:31:03;;;;;;;;;;;;;;;;;;5012794;28;857;-66
2022/05/16 04:33:28;;;;;;;;;;;;;;;;;;5012752;28;1195;-66
2022/05/16 04:35:54;;;;;;;;;;;;;;;;;;5013182;28;821;-66
2022/05/16 04:38:19;;;;;;;;;;;;;;;;;;5011723;28;1922;-66
2022/05/16 04:43:28;;;;;;;;;;;;;;;;;;5013169;28;1037;-66
2022/05/16 04:45:53;;;;;;;;;;;;;;;;;;5012546;28;981;-66
2022/05/16 04:48:19;;;;;;;;;;;;;;;;;;5012986;28;652;-66
2022/05/16 04:50:44;;;;;;;;;;;;;;;;;;5012736;28;897;-66
2022/05/16 04:53:10;;;;;;;;;;;;;;;;;;5013066;28;778;-66
2022/05/16 04:55:35;;;;;;;;;;;;;;;;;;5012456;28;857;-67
2022/05/16 04:58:00;;;;;;;;;;;;;;;;;;5012332;28;1979;-67
2022/05/16 05:00:26;;;;;;;;;;;;;;;;;;5011965;28;862;-67
2022/05/16 05:02:52;;;;;;;;;;;;;;;;;;5012254;28;1063;-66
2022/05/16 05:05:18;;;;;;;;;;;;;;;;;;5012316;28;992;-66
2022/05/16 05:07:44;;;;;;;;;;;;;;;;;;5012282;28;956;-67
2022/05/16 05:15:39;;;;;;;;;;;;;;;;;;5011465;28;1003;-66
2022/05/16 05:18:05;;;;;;;;;;;;;;;;;;5009892;28;1906;-66
2022/05/16 05:20:32;;;;;;;;;;;;;;;;;;5012130;28;842;-66
2022/05/16 05:22:58;;;;;;;;;;;;;;;;;;5011695;28;935;-66
2022/05/16 05:25:23;;;;;;;;;;;;;;;;;;4993779;28;1758;-66
2022/05/16 05:27:49;;;;;;;;;;;;;;;;;;5011442;28;956;-67
2022/05/16 05:30:16;;;;;;;;;;;;;;;;;;5011247;28;944;-66
2022/05/16 05:32:44;;;;;;;;;;;;;;;;;;5011484;28;1189;-66
2022/05/16 05:35:10;;;;;;;;;;;;;;;;;;5012508;28;951;-66
2022/05/16 05:37:36;;;;;;;;;;;;;;;;;;5012100;28;1899;-66
2022/05/16 05:40:04;;;;;;;;;;;;;;;;;;5012229;28;979;-66
2022/05/16 05:42:29;;;;;;;;;;;;;;;;;;5011960;28;841;-66
2022/05/16 05:44:54;;;;;;;;;;;;;;;;;;5012837;28;783;-67
2022/05/16 05:47:20;;;;;;;;;;;;;;;;;;5012227;28;907;-67
2022/05/16 05:49:46;;;;;;;;;;;;;;;;;;4995196;28;802;-67
2022/05/16 05:52:11;;;;;;;;;;;;;;;;;;5012127;28;876;-67
2022/05/16 05:54:37;;;;;;;;;;;;;;;;;;4994836;28;822;-67
2022/05/16 05:57:03;;;;;;;;;;;;;;;;;;5012195;28;1977;-67
2022/05/16 05:59:28;;;;;;;;;;;;;;;;;;5010996;28;1003;-66
2022/05/16 06:01:53;;;;;;;;;;;;;;;;;;5012355;28;821;-65
2022/05/16 06:04:19;;;;;;;;;;;;;;;;;;5012013;28;920;-66
2022/05/16 06:06:46;;;;;;;;;;;;;;;;;;5012345;28;1063;-66
2022/05/16 06:09:11;;;;;;;;;;;;;;;;;;4993602;28;1216;-66
2022/05/16 06:11:37;;;;;;;;;;;;;;;;;;5012200;28;916;-66
2022/05/16 06:14:02;;;;;;;;;;;;;;;;;;5012666;28;885;-67
2022/05/16 06:16:28;;;;;;;;;;;;;;;;;;5012432;28;782;-67
2022/05/16 06:18:53;;;;;;;;;;;;;;;;;;5013024;28;1874;-66
2022/05/16 06:21:18;;;;;;;;;;;;;;;;;;5012148;28;845;-67
2022/05/16 06:23:44;;;;;;;;;;;;;;;;;;5012414;28;888;-67
2022/05/16 06:26:09;;;;;;;;;;;;;;;;;;5012699;28;850;-67
2022/05/16 06:28:37;;;;;;;;;;;;;;;;;;4994694;28;1118;-67
2022/05/16 06:31:03;;;;;;;;;;;;;;;;;;5011252;28;908;-67
2022/05/16 06:33:31;;;;;;;;;;;;;;;;;;5010685;28;1021;-68
2022/05/16 06:35:57;;;;;;;;;;;;;;;;;;5011693;28;953;-67
2022/05/16 06:38:23;;;;;;;;;;;;;;;;;;5014499;28;1960;-67
2022/05/16 06:40:49;;;;;;;;;;;;;;;;;;5015167;28;992;-67
2022/05/16 06:43:16;;;;;;;;;;;;;;;;;;5014661;28;905;-67
2022/05/16 06:45:41;;;;;;;;;;;;;;;;;;5015326;28;924;-67
2022/05/16 06:48:07;;;;;;;;;;;;;;;;;;5014721;28;892;-67
2022/05/16 06:50:33;;;;;;;;;;;;;;;;;;5014795;28;1010;-67
2022/05/16 06:52:58;;;;;;;;;;;;;;;;;;5014601;28;995;-67
2022/05/16 06:55:24;;;;;;;;;;;;;;;;;;5014147;28;1012;-67
2022/05/16 06:57:49;;;;;;;;;;;;;;;;;;5014416;28;1978;-68
2022/05/16 07:00:15;;;;;;;;;;;;;;;;;;5014133;28;1122;-67
2022/05/16 07:02:41;;;;;;;;;;;;;;;;;;4996745;28;1084;-67
2022/05/16 07:05:07;;;;;;;;;;;;;;;;;;5014889;28;845;-68
2022/05/16 07:07:33;;;;;;;;;;;;;;;;;;5014407;28;912;-67
2022/05/16 07:09:59;;;;;;;;;;;;;;;;;;5014702;28;854;-67
2022/05/16 07:12:24;;;;;;;;;;;;;;;;;;5014268;28;857;-67
2022/05/16 07:14:49;;;;;;;;;;;;;;;;;;5014933;28;822;-67
2022/05/16 07:17:15;;;;;;;;;;;;;;;;;;4996526;28;2005;-67
2022/05/16 07:19:40;;;;;;;;;;;;;;;;;;5014874;28;829;-66
2022/05/16 07:22:10;;;;;;;;;;;;;;;;;;4996594;28;900;-66
2022/05/16 07:24:35;;;;;;;;;;;;;;;;;;4996608;28;1244;-67
2022/05/16 07:29:44;;;;;;;;;;;;;;;;;;5012894;28;976;-66
2022/05/16 07:32:11;;;;;;;;;;;;;;;;;;5014231;28;1256;-67
2022/05/16 07:34:37;;;;;;;;;;;;;;;;;;5013589;28;1483;-66
2022/05/16 07:37:03;;;;;;;;;;;;;;;;;;5013792;28;1910;-67
2022/05/16 07:39:28;;;;;;;;;;;;;;;;;;5013658;28;960;-67
2022/05/16 07:41:54;;;;;;;;;;;;;;;;;;5012706;28;869;-67
2022/05/16 07:44:19;;;;;;;;;;;;;;;;;;5013444;28;903;-67
2022/05/16 07:46:45;;;;;;;;;;;;;;;;;;5013373;28;845;-67
2022/05/16 07:49:10;;;;;;;;;;;;;;;;;;5013775;28;924;-66
2022/05/16 07:51:36;;;;;;;;;;;;;;;;;;5013577;28;868;-66
2022/05/16 07:54:01;;;;;;;;;;;;;;;;;;5013645;28;825;-67
2022/05/16 07:56:26;;;;;;;;;;;;;;;;;;5013057;28;841;-66
2022/05/16 07:58:51;;;;;;;;;;;;;;;;;;4996064;28;1895;-66
2022/05/16 08:01:17;;;;;;;;;;;;;;;;;;4995468;28;821;-67
2022/05/16 08:03:42;;;;;;;;;;;;;;;;;;5013319;28;904;-67
2022/05/16 08:06:07;;;;;;;;;;;;;;;;;;4995615;28;889;-67
2022/05/16 08:11:16;;;;;;;;;;;;;;;;;;4998564;28;671;-67
2022/05/16 08:13:42;;;;;;;;;;;;;;;;;;5013480;28;865;-71
2022/05/16 08:16:07;;;;;;;;;;;;;;;;;;5013728;28;952;-71
2022/05/16 08:18:32;;;;;;;;;;;;;;;;;;5013481;28;1918;-72
2022/05/16 08:20:59;;;;;;;;;;;;;;;;;;5012287;28;1613;-71
2022/05/16 08:23:26;;;;;;;;;;;;;;;;;;5012463;28;1154;-71
2022/05/16 08:25:52;;;;;;;;;;;;;;;;;;5014288;28;937;-72
2022/05/16 08:28:17;;;;;;;;;;;;;;;;;;4994304;28;889;-72
2022/05/16 08:30:43;;;;;;;;;;;;;;;;;;4995269;28;842;-69
2022/05/16 08:33:08;;;;;;;;;;;;;;;;;;5012782;28;1083;-67
2022/05/16 08:35:33;;;;;;;;;;;;;;;;;;5012242;28;880;-67
2022/05/16 08:41:02;;;;;;;;;;;;;;;;;;5013362;28;616;-67
2022/05/16 08:43:42;;;;;;;;;;;;;;;;;;5012215;28;1279;-67
2022/05/16 08:46:08;;;;;;;;;;;;;;;;;;5012767;28;1062;-67
2022/05/16 08:48:36;;;;;;;;;;;;;;;;;;5012705;28;877;-68
2022/05/16 08:51:04;;;;;;;;;;;;;;;;;;5013424;28;866;-67
2022/05/16 08:53:36;;;;;;;;;;;;;;;;;;5011543;28;928;-67
2022/05/16 08:56:04;;;;;;;;;;;;;;;;;;5012306;28;837;-67
2022/05/16 08:58:35;;;;;;;;;;;;;;;;;;5011344;28;1910;-67
2022/05/16 09:01:02;;;;;;;;;;;;;;;;;;5012385;28;904;-67
2022/05/16 09:03:40;;;;;;;;;;;;;;;;;;5012019;28;925;-67
2022/05/16 09:06:12;;;;;;;;;;;;;;;;;;5012783;28;837;-66
2022/05/16 09:08:50;;;;;;;;;;;;;;;;;;5013245;28;1085;-68
2022/05/16 09:11:31;;;;;;;;;;;;;;;;;;5012074;28;972;-67
2022/05/16 09:13:58;;;;;;;;;;;;;;;;;;5012819;28;786;-67
2022/05/16 09:16:32;;;;;;;;;;;;;;;;;;5011955;28;939;-67
2022/05/16 09:19:01;;;;;;;;;;;;;;;;;;5027551;28;1901;-67
2022/05/16 09:21:50;;;;;;;;;;;;;;;;;;5011653;28;908;-67
2022/05/16 09:24:20;;;;;;;;;;;;;;;;;;5003679;28;1469;-67
2022/05/16 09:26:49;;;;;;;;;;;;;;;;;;5012331;28;999;-68
2022/05/16 09:29:19;;;;;;;;;;;;;;;;;;5011917;28;841;-67
2022/05/16 09:31:45;;;;;;;;;;;;;;;;;;5012037;28;849;-67
2022/05/16 09:34:12;;;;;;;;;;;;;;;;;;5011953;28;1245;-67
2022/05/16 09:36:38;;;;;;;;;;;;;;;;;;5012018;28;933;-67
2022/05/16 09:39:05;;;;;;;;;;;;;;;;;;5012308;28;1914;-67
2022/05/16 09:41:34;;;;;;;;;;;;;;;;;;4994075;28;1260;-67
2022/05/16 09:44:02;;;;;;;;;;;;;;;;;;5011392;28;864;-67
2022/05/16 09:46:33;;;;;;;;;;;;;;;;;;5011492;28;860;-67
2022/05/16 09:49:06;;;;;;;;;;;;;;;;;;5011664;28;774;-67
2022/05/16 09:51:38;;;;;;;;;;;;;;;;;;5011089;28;894;-67
2022/05/16 09:54:30;;;;;;;;;;;;;;;;;;5011497;28;963;-67
2022/05/16 09:56:58;;;;;;;;;;;;;;;;;;4991076;28;2215;-67
2022/05/16 09:59:53;;;;;;;;;;;;;;;;;;5010913;28;1008;-67
2022/05/16 10:02:27;;;;;;;;;;;;;;;;;;4957038;28;1212;-67
2022/05/16 10:04:56;;;;;;;;;;;;;;;;;;5011380;28;916;-67
2022/05/16 10:07:27;;;;;;;;;;;;;;;;;;5011077;28;822;-67
2022/05/16 10:09:53;;;;;;;;;;;;;;;;;;4993981;28;1362;-67
2022/05/16 10:12:20;;;;;;;;;;;;;;;;;;5014957;28;877;-67
2022/05/16 10:14:48;;;;;;;;;;;;;;;;;;5015083;28;853;-67
2022/05/16 10:17:20;;;;;;;;;;;;;;;;;;5015047;28;1910;-67
2022/05/16 10:19:46;;;;;;;;;;;;;;;;;;5014841;28;952;-67
2022/05/16 10:22:15;;;;;;;;;;;;;;;;;;4997392;28;1680;-67
2022/05/16 10:24:44;;;;;;;;;;;;;;;;;;5014979;28;1037;-67
2022/05/16 10:27:11;;;;;;;;;;;;;;;;;;5015866;28;878;-67
2022/05/16 10:29:45;;;;;;;;;;;;;;;;;;4997827;28;1299;-67
2022/05/16 10:35:10;;;;;;;;;;;;;;;;;;5015874;28;699;-67
2022/05/16 10:37:38;;;;;;;;;;;;;;;;;;5015012;28;1968;-67
2022/05/16 10:40:09;;;;;;;;;;;;;;;;;;4996600;28;1256;-67
2022/05/16 10:43:00;;;;;;;;;;;;;;;;;;5015671;28;896;-67
2022/05/16 10:45:26;;;;;;;;;;;;;;;;;;4974877;28;1238;-67
2022/05/16 10:47:58;;;;;;;;;;;;;;;;;;5015229;28;1267;-67
2022/05/16 10:50:26;;;;;;;;;;;;;;;;;;5014291;28;1217;-67
2022/05/16 10:52:54;;;;;;;;;;;;;;;;;;5014722;28;791;-67
2022/05/16 10:55:20;;;;;;;;;;;;;;;;;;5014578;28;856;-67
2022/05/16 10:58:10;;;;;;;;;;;;;;;;;;4996594;28;1886;-67
2022/05/16 11:00:43;;;;;;;;;;;;;;;;;;4996755;28;1407;-67
2022/05/16 11:03:15;;;;;;;;;;;;;;;;;;5014683;28;937;-67
2022/05/16 11:06:03;;;;;;;;;;;;;;;;;;5014317;28;810;-67
2022/05/16 11:08:29;;;;;;;;;;;;;;;;;;4985771;28;1170;-67
2022/05/16 11:11:00;;;;;;;;;;;;;;;;;;4996493;28;1248;-67
2022/05/16 11:13:36;;;;;;;;;;;;;;;;;;5013789;28;885;-67
2022/05/16 11:16:08;;;;;;;;;;;;;;;;;;5013573;28;1114;-67
2022/05/16 11:18:56;;;;;;;;;;;;;;;;;;5013955;28;1893;-67
2022/05/16 11:21:37;;;;;;;;;;;;;;;;;;5013914;28;826;-67
2022/05/16 11:24:12;;;;;;;;;;;;;;;;;;5014216;28;1006;-67
2022/05/16 11:27:00;;;;;;;;;;;;;;;;;;5014350;28;841;-67
2022/05/16 11:29:37;;;;;;;;;;;;;;;;;;4985682;28;1071;-67
2022/05/16 11:32:08;;;;;;;;;;;;;;;;;;5013752;28;858;-67
2022/05/16 11:34:53;;;;;;;;;;;;;;;;;;5012833;28;1060;-67
2022/05/16 11:37:19;;;;;;;;;;;;;;;;;;5001964;28;1970;-67
2022/05/16 11:39:51;;;;;;;;;;;;;;;;;;5014410;28;865;-67
2022/05/16 11:42:35;;;;;;;;;;;;;;;;;;5014463;28;864;-67
2022/05/16 11:45:19;;;;;;;;;;;;;;;;;;5014353;28;908;-67
2022/05/16 11:47:47;;;;;;;;;;;;;;;;;;5014161;28;771;-67
2022/05/16 11:50:21;;;;;;;;;;;;;;;;;;5014044;28;912;-67
2022/05/16 11:53:05;;;;;;;;;;;;;;;;;;5014352;28;1023;-67
2022/05/16 12:01:00;;;;;;;;;;;;;;;;;;5013527;28;691;-66
2022/05/16 12:03:36;;;;;;;;;;;;;;;;;;5013663;28;1027;-66
2022/05/16 12:06:13;;;;;;;;;;;;;;;;;;5013671;28;932;-66
2022/05/16 12:08:43;;;;;;;;;;;;;;;;;;5013937;28;806;-67
2022/05/16 12:11:15;;;;;;;;;;;;;;;;;;5012575;28;868;-67
2022/05/16 12:13:59;;;;;;;;;;;;;;;;;;5013208;28;873;-66
2022/05/16 12:16:35;;;;;;;;;;;;;;;;;;5013256;28;849;-66
2022/05/16 12:19:13;;;;;;;;;;;;;;;;;;5013443;28;1902;-66
2022/05/16 12:21:38;;;;;;;;;;;;;;;;;;4995876;28;1354;-66
2022/05/16 12:24:24;;;;;;;;;;;;;;;;;;5013331;28;890;-66
2022/05/16 12:26:56;;;;;;;;;;;;;;;;;;5013121;28;774;-67
2022/05/16 12:29:22;;;;;;;;;;;;;;;;;;5013048;28;829;-67
2022/05/16 12:31:50;;;;;;;;;;;;;;;;;;4996129;28;924;-67
2022/05/16 12:34:35;;;;;;;;;;;;;;;;;;4993998;28;1494;-66
2022/05/16 12:37:01;;;;;;;;;;;;;;;;;;5012745;28;1977;-66
2022/05/16 12:39:39;;;;;;;;;;;;;;;;;;5012930;28;833;-67
2022/05/16 12:42:04;;;;;;;;;;;;;;;;;;5012305;28;999;-67
2022/05/16 12:44:40;;;;;;;;;;;;;;;;;;5011701;28;814;-67
2022/05/16 12:47:25;;;;;;;;;;;;;;;;;;4995186;28;1016;-66
2022/05/16 12:50:02;;;;;;;;;;;;;;;;;;5011593;28;810;-67
2022/05/16 12:52:27;;;;;;;;;;;;;;;;;;5011863;28;927;-67
2022/05/16 12:55:07;;;;;;;;;;;;;;;;;;5012130;28;783;-67
2022/05/16 12:57:38;;;;;;;;;;;;;;;;;;5011498;28;1957;-67
2022/05/16 13:00:03;;;;;;;;;;;;;;;;;;5012013;28;1023;-67
2022/05/16 13:02:45;;;;;;;;;;;;;;;;;;5012199;28;861;-67
2022/05/16 13:05:15;;;;;;;;;;;;;;;;;;4994618;28;842;-67
2022/05/16 13:07:58;;;;;;;;;;;;;;;;;;5012354;28;763;-67
2022/05/16 13:10:30;;;;;;;;;;;;;;;;;;5011763;28;1130;-67
2022/05/16 13:12:55;;;;;;;;;;;;;;;;;;5011757;28;1206;-67
2022/05/16 13:15:28;;;;;;;;;;;;;;;;;;5011896;28;1020;-67
2022/05/16 13:17:57;;;;;;;;;;;;;;;;;;5012004;28;1902;-67
2022/05/16 13:20:24;;;;;;;;;;;;;;;;;;4994525;28;900;-67
2022/05/16 13:22:49;;;;;;;;;;;;;;;;;;5011870;28;915;-67
2022/05/16 13:25:17;;;;;;;;;;;;;;;;;;5011644;28;845;-67
2022/05/16 13:30:32;;;;;;;;;;;;;;;;;;5012151;28;630;-67
2022/05/16 13:32:57;;;;;;;;;;;;;;;;;;5011511;28;1075;-66
2022/05/16 13:35:29;;;;;;;;;;;;;;;;;;5011478;28;962;-67
2022/05/16 13:37:56;;;;;;;;;;;;;;;;;;5011498;28;1973;-67
2022/05/16 13:40:22;;;;;;;;;;;;;;;;;;5010846;28;1113;-67
2022/05/16 13:42:47;;;;;;;;;;;;;;;;;;5012259;28;976;-72
2022/05/16 13:45:12;;;;;;;;;;;;;;;;;;5011053;28;856;-71
2022/05/16 13:47:39;;;;;;;;;;;;;;;;;;5011759;28;1093;-71
2022/05/16 13:50:04;;;;;;;;;;;;;;;;;;5012571;28;952;-72
2022/05/16 13:52:36;;;;;;;;;;;;;;;;;;5011827;28;1008;-71
2022/05/16 13:55:06;;;;;;;;;;;;;;;;;;5012064;28;818;-70
2022/05/16 13:57:31;;;;;;;;;;;;;;;;;;5011530;28;1906;-71
2022/05/16 14:00:12;;;;;;;;;;;;;;;;;;5012326;28;837;-67
2022/05/16 14:02:38;;;;;;;;;;;;;;;;;;5012249;28;790;-66
2022/05/16 14:05:10;;;;;;;;;;;;;;;;;;5012091;28;770;-67
2022/05/16 14:07:36;;;;;;;;;;;;;;;;;;5012279;28;861;-67
2022/05/16 14:10:08;;;;;;;;;;;;;;;;;;5011827;28;810;-67
2022/05/16 14:12:43;;;;;;;;;;;;;;;;;;5012231;28;932;-67
2022/05/16 14:15:30;;;;;;;;;;;;;;;;;;5012652;28;847;-67
2022/05/16 14:18:11;;;;;;;;;;;;;;;;;;5011919;28;1902;-67
2022/05/16 14:20:40;;;;;;;;;;;;;;;;;;5012346;28;885;-67
2022/05/16 14:23:13;;;;;;;;;;;;;;;;;;5011677;28;1016;-67
2022/05/16 14:25:40;;;;;;;;;;;;;;;;;;5011553;28;960;-67
2022/05/16 14:28:20;;;;;;;;;;;;;;;;;;5011409;28;848;-67
2022/05/16 14:31:08;;;;;;;;;;;;;;;;;;5011937;28;928;-67
2022/05/16 14:33:34;;;;;;;;;;;;;;;;;;5009654;28;1707;-67
2022/05/16 14:36:05;;;;;;;;;;;;;;;;;;5011539;28;967;-67
2022/05/16 14:38:44;;;;;;;;;;;;;;;;;;5010926;28;1976;-67
2022/05/16 14:41:13;;;;;;;;;;;;;;;;;;5010843;28;829;-67
2022/05/16 14:43:39;;;;;;;;;;;;;;;;;;5010616;28;833;-67
2022/05/16 14:48:59;;;;;;;;;;;;;;;;;;5011510;28;680;-67
2022/05/16 14:51:27;;;;;;;;;;;;;;;;;;5025807;28;849;-67
2022/05/16 14:53:52;;;;;;;;;;;;;;;;;;5011075;28;924;-67
2022/05/16 14:56:18;;;;;;;;;;;;;;;;;;5010906;28;900;-67
2022/05/16 14:58:43;;;;;;;;;;;;;;;;;;5014593;28;1961;-67
2022/05/16 15:04:05;;;;;;;;;;;;;;;;;;5015393;28;631;-66
2022/05/16 15:06:36;;;;;;;;;;;;;;;;;;5014177;28;825;-67
2022/05/16 15:09:03;;;;;;;;;;;;;;;;;;5014202;28;837;-67
2022/05/16 15:11:30;;;;;;;;;;;;;;;;;;5013982;28;960;-67
2022/05/16 15:13:56;;;;;;;;;;;;;;;;;;5014444;28;945;-67
2022/05/16 15:16:22;;;;;;;;;;;;;;;;;;4996735;28;1627;-67
2022/05/16 15:18:47;;;;;;;;;;;;;;;;;;5014230;28;1902;-67
2022/05/16 15:21:14;;;;;;;;;;;;;;;;;;5013957;28;892;-67
2022/05/16 15:23:39;;;;;;;;;;;;;;;;;;5014334;28;1058;-67
2022/05/16 15:26:06;;;;;;;;;;;;;;;;;;4997116;28;829;-67
2022/05/16 15:28:32;;;;;;;;;;;;;;;;;;5013759;28;909;-67
2022/05/16 15:30:57;;;;;;;;;;;;;;;;;;5014176;28;999;-67
2022/05/16 15:33:22;;;;;;;;;;;;;;;;;;4995886;28;1154;-67
2022/05/16 15:35:51;;;;;;;;;;;;;;;;;;5014031;28;727;-67
2022/05/16 15:38:17;;;;;;;;;;;;;;;;;;5013725;28;1914;-67
2022/05/16 15:40:44;;;;;;;;;;;;;;;;;;5014432;28;1074;-67
2022/05/16 15:43:11;;;;;;;;;;;;;;;;;;5015541;28;833;-67
2022/05/16 15:45:39;;;;;;;;;;;;;;;;;;4994974;28;1224;-67
2022/05/16 15:48:06;;;;;;;;;;;;;;;;;;4995256;28;1157;-67
2022/05/16 15:50:32;;;;;;;;;;;;;;;;;;5012728;28;1066;-67
2022/05/16 15:52:57;;;;;;;;;;;;;;;;;;5014406;28;912;-67
2022/05/16 15:55:23;;;;;;;;;;;;;;;;;;5014228;28;790;-67
2022/05/16 15:57:48;;;;;;;;;;;;;;;;;;5014244;28;1969;-67
2022/05/16 16:00:15;;;;;;;;;;;;;;;;;;5014116;28;1177;-66
2022/05/16 16:02:43;;;;;;;;;;;;;;;;;;5014413;28;893;-66
2022/05/16 16:10:53;;;;;;;;;;;;;;;;;;4990681;28;1341;-67
2022/05/16 16:13:20;;;;;;;;;;;;;;;;;;4995684;28;1450;-67
2022/05/16 16:15:46;;;;;;;;;;;;;;;;;;5013593;28;837;-67
2022/05/16 16:18:12;;;;;;;;;;;;;;;;;;5013639;28;1969;-67
2022/05/16 16:20:38;;;;;;;;;;;;;;;;;;5013507;28;869;-67
2022/05/16 16:23:04;;;;;;;;;;;;;;;;;;5013435;28;999;-67
2022/05/16 16:25:34;;;;;;;;;;;;;;;;;;4995668;28;909;-67
2022/05/16 16:28:00;;;;;;;;;;;;;;;;;;5013754;28;889;-67
2022/05/16 16:30:25;;;;;;;;;;;;;;;;;;4995394;28;960;-67
2022/05/16 16:32:52;;;;;;;;;;;;;;;;;;5012960;28;1153;-66
2022/05/16 16:35:18;;;;;;;;;;;;;;;;;;5013082;28;940;-66
2022/05/16 16:37:43;;;;;;;;;;;;;;;;;;5012811;28;1891;-66
2022/05/16 16:40:10;;;;;;;;;;;;;;;;;;5013270;28;841;-66
2022/05/16 16:42:38;;;;;;;;;;;;;;;;;;5013354;28;853;-66
2022/05/16 16:45:05;;;;;;;;;;;;;;;;;;5013267;28;842;-66
2022/05/16 16:47:31;;;;;;;;;;;;;;;;;;5013025;28;869;-67
2022/05/16 16:49:57;;;;;;;;;;;;;;;;;;5013511;28;822;-66
2022/05/16 16:57:53;;;;;;;;;;;;;;;;;;5013299;28;1965;-66
2022/05/16 17:00:21;;;;;;;;;;;;;;;;;;4994998;28;1263;-66
2022/05/16 17:02:48;;;;;;;;;;;;;;;;;;5013312;28;866;-66
2022/05/16 17:05:26;;;;;;;;;;;;;;;;;;5013166;28;888;-68
2022/05/16 17:07:55;;;;;;;;;;;;;;;;;;5012815;28;1020;-66
2022/05/16 17:10:24;;;;;;;;;;;;;;;;;;5012900;28;798;-66
2022/05/16 17:12:49;;;;;;;;;;;;;;;;;;5014637;28;920;-66
2022/05/16 17:15:15;;;;;;;;;;;;;;;;;;5015388;28;888;-66
2022/05/16 17:17:41;;;;;;;;;;;;;;;;;;5015268;28;1938;-66
2022/05/16 17:20:07;;;;;;;;;;;;;;;;;;4996876;28;1256;-67
2022/05/16 17:22:33;;;;;;;;;;;;;;;;;;4996608;28;1399;-66
2022/05/16 17:24:59;;;;;;;;;;;;;;;;;;4997283;28;1212;-67
2022/05/16 17:27:25;;;;;;;;;;;;;;;;;;5015081;28;793;-66
2022/05/16 17:29:50;;;;;;;;;;;;;;;;;;4981687;28;1378;-66
2022/05/16 17:32:16;;;;;;;;;;;;;;;;;;5014138;28;1217;-66
2022/05/16 17:34:42;;;;;;;;;;;;;;;;;;5013872;28;975;-68
2022/05/16 17:37:08;;;;;;;;;;;;;;;;;;5013620;28;1911;-66
2022/05/16 17:39:33;;;;;;;;;;;;;;;;;;5012375;28;861;-66
2022/05/16 17:41:59;;;;;;;;;;;;;;;;;;5012724;28;868;-66
2022/05/16 17:44:25;;;;;;;;;;;;;;;;;;4994906;28;838;-66
2022/05/16 17:46:50;;;;;;;;;;;;;;;;;;5012065;28;833;-66
2022/05/16 17:49:16;;;;;;;;;;;;;;;;;;5012497;28;690;-66
2022/05/16 17:51:43;;;;;;;;;;;;;;;;;;5012545;28;802;-66
2022/05/16 17:54:10;;;;;;;;;;;;;;;;;;5012533;28;869;-67
2022/05/16 17:56:36;;;;;;;;;;;;;;;;;;5012352;28;999;-66
2022/05/16 17:59:02;;;;;;;;;;;;;;;;;;5012837;28;1975;-67
2022/05/16 18:01:27;;;;;;;;;;;;;;;;;;5012136;28;1582;-67
2022/05/16 18:03:53;;;;;;;;;;;;;;;;;;5012422;28;817;-67
2022/05/16 18:06:18;;;;;;;;;;;;;;;;;;5012573;28;966;-67
2022/05/16 18:08:44;;;;;;;;;;;;;;;;;;5012024;28;853;-66
2022/05/16 18:13:53;;;;;;;;;;;;;;;;;;5011762;28;679;-67
2022/05/16 18:16:18;;;;;;;;;;;;;;;;;;5011690;28;794;-67
2022/05/16 18:18:44;;;;;;;;;;;;;;;;;;4993763;28;1965;-66
2022/05/16 18:21:10;;;;;;;;;;;;;;;;;;5011607;28;896;-66